Flight Track Log - Related Links

Times and Time Zones

All times are in EST time to prevent confusion due to time zone crossing. See the SWA2058 flight status page for this flight to view local times or setup timezone preferences in your user account.

Time Position Orientation Groundspeed Altitude Reporting Facility
EST Latitude Longitude Course Direction KTS MPH feet Rate Location/Type
Sat 08:49:35 PM 32.7667 -117.2667 305° West 229 264 3,000  Level Southern California TRACON
Sat 08:50:24 PM 32.7992 -117.3217 305° West 240 276 5,400 3,081 Climbing Los Angeles Center
Sat 08:51:26 PM 32.8378 -117.3983 301° West 263 303 8,700 2,565 Climbing Los Angeles Center
Sat 08:52:28 PM 32.8822 -117.4797 303° West 285 328 10,700 2,691 Climbing Los Angeles Center
Sat 08:53:42 PM 32.9761 -117.5564 326° Northwest 336 387 14,800 2,956 Climbing Los Angeles Center
Sat 08:54:44 PM 33.0458 -117.6200 323° Northwest 323 372 17,400 2,371 Climbing Los Angeles Center
Sat 08:55:46 PM 33.0997 -117.7111 305° West 331 381 19,700 1,742 Climbing Los Angeles Center
Sat 08:56:48 PM 33.1600 -117.8008 309° West 341 392 21,000 1,161 Climbing Los Angeles Center
Sat 08:57:50 PM 33.2472 -117.9231 310° West 393 452 22,100 1,500 Climbing Los Angeles Center
Sat 08:58:52 PM 33.3242 -118.0336 310° West 422 486 24,100 1,742 Climbing Los Angeles Center
Sat 08:59:54 PM 33.4008 -118.1453 309° West 430 495 25,700 1,415 Climbing Los Angeles Center
Sat 09:00:55 PM 33.4794 -118.2592 310° West 437 503 27,000 1,317 Climbing Los Angeles Center
Sat 09:01:57 PM 33.5608 -118.3778 309° West 448 516 28,400 1,500 Climbing Los Angeles Center
Sat 09:02:59 PM 33.6442 -118.4992 310° West 459 528 30,100 1,790 Climbing Los Angeles Center
Sat 09:04:01 PM 33.7253 -118.6150 310° West 449 517 32,100 1,694 Climbing Los Angeles Center
Sat 09:05:03 PM 33.8086 -118.7194 314° West 434 499 33,600 927 Climbing Los Angeles Center
Sat 09:06:04 PM 33.8936 -118.8200 316° Northwest 428 493 34,000 195 Climbing Los Angeles Center
Sat 09:07:06 PM 33.9969 -118.9422 316° Northwest 432 497 34,000  Level Los Angeles Center
Sat 09:08:08 PM 34.0811 -119.0431 315° West 429 494 34,000  Level Los Angeles Center
Sat 09:09:10 PM 34.1653 -119.1433 315° West 426 490 34,000  Level Los Angeles Center
Sat 09:10:12 PM 34.2492 -119.2447 315° West 427 491 34,000  Level Los Angeles Center
Sat 09:11:13 PM 34.3331 -119.3461 315° West 427 491 34,000  Level Los Angeles Center
Sat 09:12:15 PM 34.4183 -119.4472 316° Northwest 429 494 34,000  Level Los Angeles Center
Sat 09:13:17 PM 34.5025 -119.5508 315° West 431 496 34,000  Level Los Angeles Center
Sat 09:14:18 PM 34.6047 -119.6744 315° West 432 497 34,000  Level Los Angeles Center
Sat 09:15:20 PM 34.6897 -119.7761 315° West 433 498 34,000  Level Los Angeles Center
Sat 09:16:22 PM 34.7758 -119.8794 315° West 434 499 34,000  Level Los Angeles Center
Sat 09:17:23 PM 34.8614 -119.9836 315° West 434 499 34,000  Level Los Angeles Center
Sat 09:18:25 PM 34.9472 -120.0883 315° West 435 501 34,000  Level Los Angeles Center
Sat 09:19:27 PM 35.0308 -120.1925 314° West 438 504 34,000  Level Los Angeles Center
Sat 09:20:28 PM 35.1164 -120.2983 315° West 440 506 34,000  Level Los Angeles Center
Sat 09:21:30 PM 35.2175 -120.4231 315° West 436 502 34,000  Level Los Angeles Center
Sat 09:22:31 PM 35.3025 -120.5297 314° West 440 506 34,000  Level Los Angeles Center
Sat 09:23:33 PM 35.3875 -120.6361 314° West 441 507 34,000  Level Los Angeles Center
Sat 09:24:34 PM 35.4817 -120.7286 321° Northwest 435 501 34,000  Level Los Angeles Center
Sat 09:25:36 PM 35.5767 -120.8194 322° Northwest 434 499 34,000  Level Los Angeles Center
Sat 09:26:37 PM 35.6844 -120.9239 322° Northwest 436 502 34,000  Level Los Angeles Center
Sat 09:27:42 PM 35.7797 -121.0142 322° Northwest 434 499 34,000  Level Oakland Center
Sat 09:28:43 PM 35.8747 -121.1078 321° Northwest 435 501 34,000  Level Oakland Center
Sat 09:29:44 PM 35.9708 -121.2000 322° Northwest 435 501 34,000  Level Oakland Center
Sat 09:30:45 PM 36.0672 -121.2928 322° Northwest 438 504 34,000 -738 Level Oakland Center
Sat 09:31:46 PM 36.1628 -121.3861 322° Northwest 440 506 32,500 -2,311 Descending Oakland Center
Sat 09:32:47 PM 36.2772 -121.4992 321° Northwest 439 505 29,300 -2,803 Descending Oakland Center
Sat 09:33:48 PM 36.3700 -121.5900 322° Northwest 427 491 26,800 -2,361 Descending Oakland Center
Sat 09:34:49 PM 36.4581 -121.6781 321° Northwest 407 468 24,500 -2,262 Descending Oakland Center
Sat 09:35:50 PM 36.5442 -121.7628 322° Northwest 396 456 22,200 -2,328 Descending Oakland Center
Sat 09:36:45 PM 36.6167 -121.8500 316° Northwest 384 442 20,000 -1,930 Descending Northern Cal TRACON
Sat 09:37:45 PM 36.7000 -121.9167 327° Northwest 368 423 18,500 -1,550 Descending Northern Cal TRACON
Sat 09:38:45 PM 36.8000 -121.9833 332° Northwest 363 418 16,900 -1,800 Descending Northern Cal TRACON
Sat 09:39:45 PM 36.8833 -122.0000 351° North 346 398 14,900 -2,000 Descending Northern Cal TRACON
Sat 09:40:45 PM 36.9833 -122.0333 345° North 333 383 12,900 -1,900 Descending Northern Cal TRACON
Sat 09:41:45 PM 37.0667 -122.0500 351° North 319 367 11,100 -1,400 Descending Northern Cal TRACON
Sat 09:42:45 PM 37.1500 -122.0667 351° North 300 345 10,100 -900 Descending Northern Cal TRACON
Sat 09:43:45 PM 37.2333 -122.1000 342° North 274 315 9,300 -1,250 Descending Northern Cal TRACON
Sat 09:44:45 PM 37.3000 -122.1167 349° North 261 300 7,600 -1,737 Descending Northern Cal TRACON
Sat 09:45:39 PM 37.3667 -122.1333 349° North 265 305 6,000 -1,300 Descending Northern Cal TRACON
Sat 09:46:45 PM 37.4333 -122.1500 349° North 243 280 5,000 -619 Descending Northern Cal TRACON
Sat 09:47:45 PM 37.5000 -122.1667 349° North 200 230 4,700 -1,000 Descending Northern Cal TRACON
Sat 09:48:45 PM 37.5333 -122.2000 322° Northwest 195 224 3,000 -1,600 Descending Northern Cal TRACON
Sat 09:49:45 PM 37.5667 -122.2500 310° West 188 216 1,500 -1,050 Descending Northern Cal TRACON
Sat 09:50:45 PM 37.5833 -122.3000 293° West 148 170 900 -650 Descending Northern Cal TRACON
Sat 09:51:45 PM 37.6167 -122.3500 310° West 146 168 200 -700 Descending Northern Cal TRACON
Sat 09:54:00 PM 37.6167 -122.3667 322° Northwest  Level FlightAware Approximate

Login

Don't have an account? Register now (free) for customized features, flight alerts, and more!